createdAt,value
2024-01-11T00:00:11.142Z,73.20
2024-01-11T00:02:13.007Z,73.07
2024-01-11T00:04:15.327Z,73.00
2024-01-11T00:06:17.229Z,72.90
2024-01-11T00:08:19.016Z,72.91
2024-01-11T00:10:21.526Z,72.73
2024-01-11T00:12:23.282Z,72.58
2024-01-11T00:14:25.075Z,72.84
2024-01-11T00:16:27.682Z,72.87
2024-01-11T00:18:29.800Z,73.20
2024-01-11T00:20:31.642Z,73.03
2024-01-11T00:22:33.517Z,72.68
2024-01-11T00:24:39.435Z,72.54
2024-01-11T00:26:42.931Z,72.67
2024-01-11T00:28:44.698Z,72.58
2024-01-11T00:30:46.470Z,72.38
2024-01-11T00:32:48.443Z,72.37
2024-01-11T00:34:50.275Z,72.63
2024-01-11T00:36:51.991Z,72.54
2024-01-11T00:38:53.780Z,72.66
2024-01-11T00:40:55.522Z,72.52
2024-01-11T00:42:57.296Z,73.72
2024-01-11T00:44:59.066Z,72.89
2024-01-11T00:47:00.811Z,72.56
2024-01-11T00:49:02.723Z,72.49
2024-01-11T00:51:08.349Z,72.60
2024-01-11T00:53:10.775Z,72.53
2024-01-11T00:55:12.587Z,72.34
2024-01-11T00:57:14.319Z,72.36
2024-01-11T00:59:16.149Z,72.06
2024-01-11T01:01:18.018Z,72.26
2024-01-11T01:03:21.003Z,72.40
2024-01-11T01:05:22.868Z,72.12
2024-01-11T01:07:24.695Z,72.15
2024-01-11T01:09:26.433Z,71.99
2024-01-11T01:11:28.258Z,72.05
2024-01-11T01:13:29.995Z,72.14
2024-01-11T01:15:31.727Z,72.02
2024-01-11T01:17:33.529Z,72.15
2024-01-11T01:19:35.336Z,72.10
2024-01-11T01:21:37.125Z,71.81
2024-01-11T01:23:39.194Z,71.86
2024-01-11T01:25:40.967Z,71.94
2024-01-11T01:27:42.738Z,71.97
2024-01-11T01:29:44.518Z,71.96
2024-01-11T01:31:46.254Z,71.93
2024-01-11T01:33:48.154Z,72.15
2024-01-11T01:35:50.162Z,72.35
2024-01-11T01:37:51.949Z,72.46
2024-01-11T01:39:53.769Z,72.38
2024-01-11T01:41:55.483Z,72.43
2024-01-11T01:43:57.232Z,72.46
2024-01-11T01:45:59.967Z,72.59
2024-01-11T01:48:02.805Z,72.83
2024-01-11T01:50:05.642Z,72.96
2024-01-11T01:52:08.796Z,72.88
2024-01-11T01:54:10.908Z,72.87
2024-01-11T01:56:13.851Z,74.29
2024-01-11T01:58:16.905Z,74.19
2024-01-11T02:00:19.436Z,74.44
2024-01-11T02:02:22.945Z,74.96
2024-01-11T02:04:25.056Z,75.85
2024-01-11T02:06:28.644Z,75.57
2024-01-11T02:08:31.972Z,75.33
2024-01-11T02:10:34.306Z,75.27
2024-01-11T02:12:39.235Z,75.37
2024-01-11T02:14:41.871Z,75.64
2024-01-11T02:16:43.663Z,75.60
2024-01-11T02:18:45.552Z,75.62
2024-01-11T02:20:47.550Z,75.65
2024-01-11T02:22:57.514Z,75.29
2024-01-11T02:24:59.802Z,74.46
2024-01-11T02:27:06.317Z,74.25
2024-01-11T02:29:08.125Z,73.71
2024-01-11T02:31:09.961Z,73.58
2024-01-11T02:33:12.478Z,73.46
2024-01-11T02:35:19.638Z,73.46
2024-01-11T02:37:22.093Z,73.28
2024-01-11T02:39:26.024Z,73.24
2024-01-11T02:41:29.245Z,73.32
2024-01-11T02:43:31.007Z,74.24
2024-01-11T02:45:32.801Z,74.94
2024-01-11T02:47:34.638Z,76.21
2024-01-11T02:49:37.620Z,77.07
2024-01-11T02:51:39.627Z,77.88
2024-01-11T02:53:41.568Z,78.04
2024-01-11T02:55:43.412Z,78.57
2024-01-11T02:57:45.379Z,78.41
2024-01-11T02:59:47.104Z,78.67
2024-01-11T03:01:48.911Z,78.65
2024-01-11T03:03:52.807Z,78.79
2024-01-11T03:05:55.083Z,79.06
2024-01-11T03:07:57.068Z,79.58
2024-01-11T03:09:58.877Z,78.98
2024-01-11T03:12:00.724Z,78.87
2024-01-11T03:14:04.082Z,79.57
2024-01-11T03:16:06.663Z,79.71
2024-01-11T03:18:08.822Z,80.04
2024-01-11T03:20:11.248Z,79.57
2024-01-11T03:22:13.589Z,79.43
2024-01-11T03:24:15.390Z,79.27
2024-01-11T03:26:18.318Z,79.19
2024-01-11T03:28:20.143Z,78.88
2024-01-11T03:30:21.999Z,79.20
2024-01-11T03:32:24.110Z,79.30
2024-01-11T03:34:26.028Z,79.51
2024-01-11T03:36:27.840Z,79.91
2024-01-11T03:38:29.639Z,80.13
2024-01-11T03:40:31.365Z,80.00
2024-01-11T03:42:33.177Z,79.24
2024-01-11T03:44:34.964Z,78.67
2024-01-11T03:46:36.674Z,78.93
2024-01-11T03:48:38.612Z,78.40
2024-01-11T03:50:40.695Z,78.52
2024-01-11T03:52:43.646Z,78.79
2024-01-11T03:54:45.552Z,79.08
2024-01-11T03:56:47.323Z,79.44
2024-01-11T03:58:49.131Z,79.68
2024-01-11T04:00:51.539Z,80.04
2024-01-11T04:02:53.323Z,80.63
2024-01-11T04:04:55.363Z,80.65
2024-01-11T04:06:57.102Z,80.69
2024-01-11T04:08:59.179Z,80.58
2024-01-11T04:11:04.670Z,80.57
2024-01-11T04:13:08.596Z,80.85
2024-01-11T04:15:13.408Z,80.72
2024-01-11T04:17:15.297Z,80.53
2024-01-11T04:19:18.790Z,80.60
2024-01-11T04:21:29.656Z,80.56
2024-01-11T04:23:31.863Z,79.86
2024-01-11T04:25:33.719Z,78.65
2024-01-11T04:27:35.446Z,78.45
2024-01-11T04:29:37.208Z,78.36
2024-01-11T04:31:38.982Z,78.52
2024-01-11T04:33:47.677Z,78.56
2024-01-11T04:35:49.594Z,78.78
2024-01-11T04:37:51.700Z,79.14
2024-01-11T04:39:53.421Z,79.18
2024-01-11T04:41:55.132Z,78.89
2024-01-11T04:43:56.860Z,79.03
2024-01-11T04:45:58.675Z,79.50
2024-01-11T04:48:00.545Z,79.31
2024-01-11T04:50:02.485Z,79.67
2024-01-11T04:52:04.796Z,79.36
2024-01-11T04:54:06.733Z,79.85
2024-01-11T04:56:09.637Z,80.00
2024-01-11T04:58:11.541Z,80.13
2024-01-11T05:00:13.803Z,80.60
2024-01-11T05:02:15.565Z,80.65
2024-01-11T05:04:17.285Z,80.77
2024-01-11T05:06:19.988Z,80.72
2024-01-11T05:08:21.944Z,80.68
2024-01-11T05:10:23.737Z,80.65
2024-01-11T05:12:25.559Z,80.93
2024-01-11T05:14:27.318Z,81.27
2024-01-11T05:16:29.923Z,81.09
2024-01-11T05:18:35.012Z,81.42
2024-01-11T05:20:37.380Z,81.62
2024-01-11T05:22:39.133Z,81.44
2024-01-11T05:24:41.242Z,81.63
2024-01-11T05:26:43.093Z,81.68
2024-01-11T05:28:45.492Z,81.98
2024-01-11T05:30:50.538Z,82.16
2024-01-11T05:32:52.398Z,82.45
2024-01-11T05:34:54.205Z,82.32
2024-01-11T05:36:56.159Z,82.19
2024-01-11T05:38:58.363Z,82.16
2024-01-11T05:41:00.323Z,82.50
2024-01-11T05:43:02.121Z,82.47
2024-01-11T05:45:05.182Z,82.48
2024-01-11T05:47:06.936Z,82.46
2024-01-11T05:49:09.042Z,82.52
2024-01-11T05:51:11.111Z,82.52
2024-01-11T05:53:13.744Z,82.52
2024-01-11T05:55:15.613Z,82.61
2024-01-11T05:57:18.024Z,82.76
2024-01-11T05:59:19.819Z,82.76
2024-01-11T06:01:22.848Z,83.14
2024-01-11T06:03:24.703Z,83.21
2024-01-11T06:05:27.199Z,83.55
2024-01-11T06:07:29.495Z,83.41
2024-01-11T06:09:31.316Z,83.48
2024-01-11T06:11:33.531Z,83.20
2024-01-11T06:13:35.302Z,83.49
2024-01-11T06:15:37.021Z,83.74
2024-01-11T06:17:39.053Z,83.64
2024-01-11T06:19:40.840Z,84.01
2024-01-11T06:21:42.602Z,83.63
2024-01-11T06:23:48.391Z,83.55
2024-01-11T06:25:50.348Z,83.69
2024-01-11T06:27:52.185Z,83.62
2024-01-11T06:29:54.301Z,83.96
2024-01-11T06:31:56.204Z,84.13
2024-01-11T06:33:57.990Z,84.05
2024-01-11T06:35:59.998Z,83.97
2024-01-11T06:38:02.189Z,83.89
2024-01-11T06:40:04.997Z,83.89
2024-01-11T06:42:07.914Z,84.00
2024-01-11T06:44:10.282Z,83.78
2024-01-11T06:46:12.121Z,83.96
2024-01-11T06:48:14.090Z,83.83
2024-01-11T06:50:16.218Z,83.78
2024-01-11T06:52:17.999Z,83.92
2024-01-11T06:54:19.694Z,84.01
2024-01-11T06:56:22.372Z,83.96
2024-01-11T06:58:24.449Z,84.07
2024-01-11T07:00:26.301Z,83.88
2024-01-11T07:02:28.174Z,84.06
2024-01-11T07:04:32.239Z,84.15
2024-01-11T07:06:35.383Z,84.46
2024-01-11T07:08:37.364Z,84.43
2024-01-11T07:10:39.096Z,84.20
2024-01-11T07:12:42.796Z,84.38
2024-01-11T07:14:44.720Z,84.45
2024-01-11T07:16:46.684Z,84.65
2024-01-11T07:18:48.518Z,84.53
2024-01-11T07:20:50.421Z,84.69
2024-01-11T07:22:52.290Z,84.49
2024-01-11T07:24:54.070Z,84.68
2024-01-11T07:26:55.867Z,84.80
2024-01-11T07:28:57.886Z,84.89
2024-01-11T07:30:59.886Z,84.80
2024-01-11T07:33:02.319Z,84.95
2024-01-11T07:35:06.900Z,85.02
2024-01-11T07:37:10.312Z,85.37
2024-01-11T07:39:12.030Z,85.21
2024-01-11T07:41:13.938Z,85.03
2024-01-11T07:43:15.720Z,85.09
2024-01-11T07:45:17.510Z,85.12
2024-01-11T07:47:19.257Z,85.23
2024-01-11T07:49:22.056Z,85.29
2024-01-11T07:51:24.135Z,85.20
2024-01-11T07:53:25.895Z,85.67
2024-01-11T07:55:27.816Z,85.61
2024-01-11T07:57:29.950Z,85.65
2024-01-11T07:59:37.454Z,85.75
2024-01-11T08:01:39.409Z,85.64
2024-01-11T08:03:43.095Z,85.57
2024-01-11T08:05:45.794Z,85.80
2024-01-11T08:07:47.601Z,85.65
2024-01-11T08:09:49.311Z,85.66
2024-01-11T08:11:52.267Z,85.54
2024-01-11T08:13:56.112Z,85.56
2024-01-11T08:15:58.898Z,85.71
2024-01-11T08:18:01.880Z,85.38
2024-01-11T08:20:05.172Z,85.21
2024-01-11T08:22:07.368Z,85.49
2024-01-11T08:24:09.192Z,85.78
2024-01-11T08:26:20.456Z,85.57
2024-01-11T08:28:22.328Z,85.67
2024-01-11T08:30:24.153Z,85.72
2024-01-11T08:32:31.542Z,85.55
2024-01-11T08:34:34.751Z,85.22
2024-01-11T08:36:36.726Z,85.38
2024-01-11T08:38:38.568Z,85.46
2024-01-11T08:40:40.417Z,85.57
2024-01-11T08:42:42.728Z,85.29
2024-01-11T08:44:44.637Z,85.70
2024-01-11T08:46:46.452Z,85.54
2024-01-11T08:48:48.405Z,85.37
2024-01-11T08:50:50.255Z,85.49
2024-01-11T08:52:52.021Z,85.53
2024-01-11T08:54:53.769Z,85.51
2024-01-11T08:56:55.582Z,85.28
2024-01-11T08:58:59.468Z,85.25
2024-01-11T09:01:01.519Z,85.36
2024-01-11T09:03:04.138Z,85.29
2024-01-11T09:05:09.399Z,85.14
2024-01-11T09:07:11.781Z,85.26
2024-01-11T09:09:14.798Z,85.60
2024-01-11T09:11:18.612Z,85.25
2024-01-11T09:13:20.715Z,85.22
2024-01-11T09:15:22.500Z,85.32
2024-01-11T09:17:24.363Z,85.16
2024-01-11T09:19:26.645Z,85.18
2024-01-11T09:21:28.459Z,85.33
2024-01-11T09:23:30.266Z,85.23
2024-01-11T09:25:32.227Z,85.01
2024-01-11T09:27:33.969Z,85.10
2024-01-11T09:29:35.802Z,85.47
2024-01-11T09:31:37.620Z,85.34
2024-01-11T09:33:39.632Z,85.23
2024-01-11T09:35:41.447Z,85.01
2024-01-11T09:37:48.105Z,84.81
2024-01-11T09:39:49.986Z,84.99
2024-01-11T09:42:00.615Z,84.89
2024-01-11T09:44:06.213Z,84.67
2024-01-11T09:46:08.282Z,84.91
2024-01-11T09:48:11.766Z,85.00
2024-01-11T09:50:19.564Z,84.88
2024-01-11T09:52:23.565Z,84.98
2024-01-11T09:54:26.498Z,85.06
2024-01-11T09:56:29.860Z,84.79
2024-01-11T09:58:32.426Z,84.85
2024-01-11T10:00:35.323Z,84.83
2024-01-11T10:02:37.148Z,84.99
2024-01-11T10:04:39.067Z,85.09
2024-01-11T10:06:41.595Z,84.72
2024-01-11T10:08:43.410Z,84.83
2024-01-11T10:10:45.231Z,84.94
2024-01-11T10:12:48.865Z,84.73
2024-01-11T10:14:51.326Z,84.78
2024-01-11T10:16:55.865Z,84.78
2024-01-11T10:18:58.152Z,84.65
2024-01-11T10:20:59.982Z,84.77
2024-01-11T10:23:03.400Z,84.65
2024-01-11T10:25:13.703Z,84.60
2024-01-11T10:27:15.411Z,84.80
2024-01-11T10:29:19.405Z,84.92
2024-01-11T10:31:25.743Z,85.08
2024-01-11T10:33:27.671Z,84.97
2024-01-11T10:35:29.676Z,85.17
2024-01-11T10:37:31.966Z,84.83
2024-01-11T10:39:36.799Z,84.73
2024-01-11T10:41:42.896Z,84.65
2024-01-11T10:43:45.173Z,84.46
2024-01-11T10:45:50.193Z,84.62
2024-01-11T10:47:57.244Z,84.54
2024-01-11T10:50:02.849Z,84.41
2024-01-11T10:52:07.411Z,84.81
2024-01-11T10:54:09.313Z,84.76
2024-01-11T10:56:13.683Z,84.86
2024-01-11T10:58:17.622Z,84.86
2024-01-11T11:00:20.382Z,84.96
2024-01-11T11:02:23.546Z,84.73
2024-01-11T11:04:26.717Z,84.87
2024-01-11T11:06:29.746Z,84.81
2024-01-11T11:08:32.859Z,84.55
2024-01-11T11:10:35.698Z,84.50
2024-01-11T11:12:39.266Z,84.64
2024-01-11T11:14:41.890Z,84.83
2024-01-11T11:16:45.843Z,84.49
2024-01-11T11:18:47.844Z,84.67
2024-01-11T11:20:49.722Z,84.30
2024-01-11T11:23:14.188Z,84.50
2024-01-11T11:25:26.878Z,84.74
2024-01-11T11:27:28.749Z,84.47
2024-01-11T11:29:30.965Z,84.33
2024-01-11T11:31:39.846Z,84.61
2024-01-11T11:33:42.390Z,84.57
2024-01-11T11:35:44.494Z,84.33
2024-01-11T11:37:46.435Z,84.39
2024-01-11T11:39:48.266Z,84.46
2024-01-11T11:41:51.231Z,84.50
2024-01-11T11:43:53.042Z,84.76
2024-01-11T11:45:55.575Z,84.72
2024-01-11T11:47:57.445Z,84.79
2024-01-11T11:50:06.573Z,84.64
2024-01-11T11:52:16.134Z,84.75
2024-01-11T11:54:18.696Z,84.68
2024-01-11T11:56:24.829Z,84.33
2024-01-11T11:58:26.737Z,84.28
2024-01-11T12:00:31.770Z,84.56
2024-01-11T12:02:33.980Z,84.47
2024-01-11T12:04:40.116Z,84.57
2024-01-11T12:06:47.397Z,84.54
2024-01-11T12:08:50.456Z,84.61
2024-01-11T12:10:53.325Z,84.44
2024-01-11T12:12:55.697Z,84.45
2024-01-11T12:15:00.336Z,84.58
2024-01-11T12:17:02.210Z,84.45
2024-01-11T12:19:04.060Z,84.66
2024-01-11T12:21:06.744Z,84.68
2024-01-11T12:23:09.096Z,84.79
2024-01-11T12:25:12.199Z,84.78
2024-01-11T12:27:14.193Z,84.76
2024-01-11T12:29:16.131Z,84.59
2024-01-11T12:31:18.343Z,84.79
2024-01-11T12:33:21.145Z,84.67
2024-01-11T12:35:24.371Z,84.93
2024-01-11T12:37:26.181Z,84.76
2024-01-11T12:39:28.181Z,85.08
2024-01-11T12:41:30.143Z,85.10
2024-01-11T12:43:32.211Z,85.09
2024-01-11T12:45:34.522Z,84.98
2024-01-11T12:47:36.379Z,85.18
2024-01-11T12:49:38.658Z,85.10
2024-01-11T12:51:41.266Z,85.18
2024-01-11T12:53:43.714Z,85.17
2024-01-11T12:55:55.332Z,85.01
2024-01-11T12:58:12.461Z,85.06
2024-01-11T13:00:15.444Z,85.24
2024-01-11T13:02:20.408Z,84.96
2024-01-11T13:04:22.514Z,85.15
2024-01-11T13:06:24.653Z,85.12
2024-01-11T13:08:28.720Z,85.30
2024-01-11T13:10:30.826Z,85.35
2024-01-11T13:12:32.998Z,85.13
2024-01-11T13:14:35.122Z,85.35
2024-01-11T13:16:37.000Z,85.30
2024-01-11T13:18:38.904Z,85.28
2024-01-11T13:20:40.773Z,85.22
2024-01-11T13:22:42.814Z,85.29
2024-01-11T13:24:44.762Z,85.40
2024-01-11T13:26:46.608Z,85.53
2024-01-11T13:28:48.495Z,85.37
2024-01-11T13:30:50.670Z,85.47
2024-01-11T13:32:52.577Z,85.47
2024-01-11T13:34:54.638Z,85.37
2024-01-11T13:36:56.389Z,85.70
2024-01-11T13:38:58.223Z,85.63
2024-01-11T13:40:59.993Z,85.54
2024-01-11T13:43:04.301Z,85.92
2024-01-11T13:45:08.541Z,85.97
2024-01-11T13:47:10.353Z,85.87
2024-01-11T13:49:16.051Z,85.93
2024-01-11T13:51:18.034Z,85.73
2024-01-11T13:53:19.809Z,85.89
2024-01-11T13:55:23.136Z,86.07
2024-01-11T13:57:25.045Z,86.02
2024-01-11T13:59:27.354Z,85.90
2024-01-11T14:01:29.075Z,85.91
2024-01-11T14:03:30.852Z,86.11
2024-01-11T14:05:32.754Z,86.14
2024-01-11T14:07:35.797Z,86.16
2024-01-11T14:09:37.543Z,86.03
2024-01-11T14:11:39.336Z,86.35
2024-01-11T14:13:41.687Z,86.27
2024-01-11T14:15:43.674Z,86.43
2024-01-11T14:17:45.725Z,86.61
2024-01-11T14:19:47.660Z,86.31
2024-01-11T14:21:50.297Z,86.41
2024-01-11T14:23:52.939Z,86.47
2024-01-11T14:25:56.831Z,86.57
2024-01-11T14:27:58.662Z,86.43
2024-01-11T14:30:00.374Z,86.89
2024-01-11T14:32:02.287Z,86.85
2024-01-11T14:34:04.271Z,86.44
2024-01-11T14:36:06.509Z,86.63
2024-01-11T14:38:08.416Z,86.52
2024-01-11T14:40:13.697Z,86.85
2024-01-11T14:42:15.680Z,86.80
2024-01-11T14:44:17.417Z,86.78
2024-01-11T14:46:19.136Z,86.77
2024-01-11T14:48:21.399Z,86.67
2024-01-11T14:50:23.385Z,86.87
2024-01-11T14:52:25.230Z,86.84
2024-01-11T14:54:26.993Z,86.90
2024-01-11T14:56:28.844Z,86.82
2024-01-11T14:58:30.596Z,86.83
2024-01-11T15:00:32.524Z,86.97
2024-01-11T15:02:35.061Z,87.15
2024-01-11T15:04:37.485Z,87.22
2024-01-11T15:06:40.113Z,87.19
2024-01-11T15:08:42.081Z,87.10
2024-01-11T15:10:44.151Z,87.10
2024-01-11T15:12:45.887Z,87.09
2024-01-11T15:14:47.927Z,87.18
2024-01-11T15:16:49.955Z,87.26
2024-01-11T15:18:51.861Z,87.02
2024-01-11T15:20:53.883Z,87.41
2024-01-11T15:22:55.792Z,87.24
2024-01-11T15:24:57.687Z,87.26
2024-01-11T15:26:59.435Z,87.24
2024-01-11T15:29:01.431Z,87.36
2024-01-11T15:31:03.596Z,87.37
2024-01-11T15:33:05.855Z,87.44
2024-01-11T15:35:09.174Z,87.47
2024-01-11T15:37:11.498Z,87.29
2024-01-11T15:39:25.045Z,87.32
2024-01-11T15:41:30.018Z,87.59
2024-01-11T15:43:32.938Z,87.60
2024-01-11T15:45:36.251Z,87.43
2024-01-11T15:47:39.564Z,87.61
2024-01-11T15:49:41.540Z,87.46
2024-01-11T15:51:43.340Z,87.63
2024-01-11T15:53:45.182Z,87.38
2024-01-11T15:55:47.002Z,87.32
2024-01-11T15:57:48.985Z,87.34
2024-01-11T15:59:50.732Z,87.32
2024-01-11T16:02:03.493Z,87.64
2024-01-11T16:04:09.409Z,87.67
2024-01-11T16:06:11.303Z,87.66
2024-01-11T16:08:13.221Z,87.58
2024-01-11T16:10:15.018Z,87.40
2024-01-11T16:12:17.182Z,87.26
2024-01-11T16:14:19.009Z,87.44
2024-01-11T16:16:20.768Z,87.30
2024-01-11T16:18:24.645Z,87.13
2024-01-11T16:20:26.519Z,87.30
2024-01-11T16:22:28.440Z,87.29
2024-01-11T16:24:30.666Z,87.53
2024-01-11T16:26:32.519Z,87.53
2024-01-11T16:28:34.307Z,87.46
2024-01-11T16:30:36.175Z,87.44
2024-01-11T16:32:38.054Z,87.58
2024-01-11T16:34:40.433Z,87.67
2024-01-11T16:36:42.248Z,87.73
2024-01-11T16:38:44.596Z,87.79
2024-01-11T16:40:46.440Z,87.65
2024-01-11T16:42:48.808Z,87.63
2024-01-11T16:44:51.319Z,87.65
2024-01-11T16:46:54.007Z,87.58
2024-01-11T16:48:56.087Z,87.67
2024-01-11T16:50:58.071Z,87.79
2024-01-11T16:53:00.110Z,87.92
2024-01-11T16:55:01.916Z,87.74
2024-01-11T16:57:05.568Z,87.78
2024-01-11T16:59:07.530Z,87.61
2024-01-11T17:01:09.944Z,87.63
2024-01-11T17:03:11.970Z,87.95
2024-01-11T17:05:14.054Z,87.97
2024-01-11T17:07:15.935Z,87.97
2024-01-11T17:09:17.641Z,88.06
2024-01-11T17:11:19.457Z,87.99
2024-01-11T17:13:24.250Z,87.84
2024-01-11T17:15:27.992Z,88.08
2024-01-11T17:17:30.032Z,88.10
2024-01-11T17:19:31.873Z,87.79
2024-01-11T17:21:33.724Z,87.75
2024-01-11T17:23:35.561Z,88.09
2024-01-11T17:25:37.289Z,88.08
2024-01-11T17:27:40.605Z,87.91
2024-01-11T17:29:43.518Z,87.94
2024-01-11T17:31:46.205Z,88.08
2024-01-11T17:33:48.542Z,87.95
2024-01-11T17:35:50.628Z,88.08
2024-01-11T17:37:52.402Z,87.91
2024-01-11T17:39:54.592Z,88.00
2024-01-11T17:42:00.803Z,87.99
2024-01-11T17:44:02.672Z,88.15
2024-01-11T17:46:05.100Z,88.13
2024-01-11T17:48:07.442Z,88.07
2024-01-11T17:50:09.632Z,88.13
2024-01-11T17:52:11.419Z,87.93
2024-01-11T17:54:13.313Z,88.14
2024-01-11T17:56:16.355Z,88.04
2024-01-11T17:58:18.928Z,87.86
2024-01-11T18:00:22.039Z,88.22
2024-01-11T18:02:23.830Z,88.18
2024-01-11T18:04:25.674Z,88.07
2024-01-11T18:06:27.611Z,88.00
2024-01-11T18:08:29.869Z,87.97
2024-01-11T18:10:38.750Z,88.15
2024-01-11T18:12:40.935Z,88.05
2024-01-11T18:14:42.865Z,88.04
2024-01-11T18:16:44.734Z,88.00
2024-01-11T18:18:49.723Z,87.98
2024-01-11T18:20:51.796Z,87.92
2024-01-11T18:22:54.050Z,87.77
2024-01-11T18:24:55.793Z,87.85
2024-01-11T18:26:57.587Z,88.00
2024-01-11T18:28:59.549Z,87.68
2024-01-11T18:31:01.397Z,87.91
2024-01-11T18:33:04.290Z,87.49
2024-01-11T18:35:09.228Z,87.59
2024-01-11T18:37:11.056Z,87.76
2024-01-11T18:39:17.121Z,87.67
2024-01-11T18:41:19.328Z,87.57
2024-01-11T18:43:21.189Z,87.73
2024-01-11T18:45:23.253Z,87.45
2024-01-11T18:47:25.493Z,87.58
2024-01-11T18:49:27.350Z,87.95
2024-01-11T18:51:30.464Z,87.64
2024-01-11T18:53:32.774Z,87.88
2024-01-11T18:55:34.579Z,87.85
2024-01-11T18:57:39.691Z,87.73
2024-01-11T18:59:41.474Z,87.90
2024-01-11T19:01:48.154Z,87.71
2024-01-11T19:03:49.922Z,87.66
2024-01-11T19:05:51.988Z,87.86
2024-01-11T19:07:54.046Z,87.79
2024-01-11T19:09:55.790Z,87.71
2024-01-11T19:12:00.005Z,87.54
2024-01-11T19:14:01.811Z,87.41
2024-01-11T19:16:03.883Z,87.63
2024-01-11T19:18:06.278Z,87.20
2024-01-11T19:20:08.795Z,87.60
2024-01-11T19:22:10.745Z,87.10
2024-01-11T19:24:12.706Z,87.38
2024-01-11T19:26:14.529Z,87.04
2024-01-11T19:28:16.425Z,87.32
2024-01-11T19:30:18.457Z,87.35
2024-01-11T19:32:20.268Z,87.24
2024-01-11T19:34:22.121Z,87.35
2024-01-11T19:36:26.061Z,87.36
2024-01-11T19:38:27.957Z,87.26
2024-01-11T19:40:29.914Z,87.20
2024-01-11T19:42:31.821Z,87.38
2024-01-11T19:44:33.671Z,87.15
2024-01-11T19:46:35.692Z,87.15
2024-01-11T19:48:37.569Z,87.31
2024-01-11T19:50:39.542Z,87.07
2024-01-11T19:52:41.325Z,87.16
2024-01-11T19:54:43.247Z,87.23
2024-01-11T19:56:45.270Z,87.41
2024-01-11T19:58:48.529Z,87.23
2024-01-11T20:00:51.476Z,87.24
2024-01-11T20:02:53.460Z,87.23
2024-01-11T20:04:56.763Z,87.35
2024-01-11T20:06:58.562Z,87.32
2024-01-11T20:09:01.379Z,87.10
2024-01-11T20:11:04.124Z,87.43
2024-01-11T20:13:06.140Z,87.18
2024-01-11T20:15:10.516Z,87.49
2024-01-11T20:17:12.574Z,87.56
2024-01-11T20:19:14.532Z,87.58
2024-01-11T20:21:16.422Z,87.65
2024-01-11T20:23:18.497Z,87.53
2024-01-11T20:25:20.310Z,87.48
2024-01-11T20:27:23.523Z,87.66
2024-01-11T20:29:27.586Z,87.64
2024-01-11T20:31:30.538Z,87.55
2024-01-11T20:33:32.867Z,87.75
2024-01-11T20:35:35.163Z,87.96
2024-01-11T20:37:41.551Z,88.06
2024-01-11T20:39:43.355Z,87.95
2024-01-11T20:41:46.163Z,87.97
2024-01-11T20:43:50.239Z,87.92
2024-01-11T20:45:53.098Z,87.92
2024-01-11T20:47:55.053Z,87.98
2024-01-11T20:49:56.958Z,87.88
2024-01-11T20:52:00.473Z,88.10
2024-01-11T20:54:02.496Z,87.95
2024-01-11T20:56:04.590Z,88.09
2024-01-11T20:58:10.750Z,87.99
2024-01-11T21:00:13.186Z,88.22
2024-01-11T21:02:14.954Z,88.18
2024-01-11T21:04:16.787Z,88.04
2024-01-11T21:06:18.570Z,87.95
2024-01-11T21:08:21.351Z,88.23
2024-01-11T21:10:25.664Z,88.00
2024-01-11T21:12:27.379Z,88.04
2024-01-11T21:14:29.916Z,87.99
2024-01-11T21:16:31.760Z,87.97
2024-01-11T21:18:34.147Z,88.12
2024-01-11T21:20:35.982Z,88.30
2024-01-11T21:22:37.772Z,88.28
2024-01-11T21:24:39.531Z,88.25
2024-01-11T21:26:42.957Z,88.00
2024-01-11T21:28:44.848Z,88.31
2024-01-11T21:30:46.694Z,88.23
2024-01-11T21:32:48.950Z,87.83
2024-01-11T21:34:50.840Z,87.92
2024-01-11T21:36:52.699Z,87.90
2024-01-11T21:38:56.722Z,87.80
2024-01-11T21:40:58.727Z,88.00
2024-01-11T21:43:00.532Z,87.75
2024-01-11T21:45:02.327Z,87.95
2024-01-11T21:47:04.336Z,87.85
2024-01-11T21:49:06.519Z,87.80
2024-01-11T21:51:08.822Z,88.02
2024-01-11T21:53:10.656Z,87.62
2024-01-11T21:55:12.494Z,87.79
2024-01-11T21:57:14.240Z,87.60
2024-01-11T21:59:16.020Z,87.65
2024-01-11T22:01:18.026Z,87.73
2024-01-11T22:03:21.589Z,87.58
2024-01-11T22:05:23.361Z,87.56
2024-01-11T22:07:25.222Z,87.65
2024-01-11T22:09:26.922Z,87.80
2024-01-11T22:11:30.996Z,87.96
2024-01-11T22:13:32.777Z,87.78
2024-01-11T22:15:34.532Z,88.02
2024-01-11T22:17:36.275Z,87.85
2024-01-11T22:19:38.244Z,87.98
2024-01-11T22:21:43.462Z,87.83
2024-01-11T22:23:45.203Z,88.04
2024-01-11T22:25:46.914Z,88.08
2024-01-11T22:27:49.009Z,87.81
2024-01-11T22:29:50.827Z,87.85
2024-01-11T22:31:52.881Z,87.81
2024-01-11T22:33:54.778Z,88.00
2024-01-11T22:35:56.671Z,88.00
2024-01-11T22:37:58.420Z,87.88
2024-01-11T22:40:00.340Z,87.83
2024-01-11T22:42:04.270Z,88.18
2024-01-11T22:44:06.885Z,88.15
2024-01-11T22:46:08.620Z,88.12
2024-01-11T22:48:10.428Z,88.05
2024-01-11T22:50:12.912Z,88.11
2024-01-11T22:52:14.742Z,88.06
2024-01-11T22:54:16.483Z,88.31
2024-01-11T22:56:18.246Z,87.97
2024-01-11T22:58:20.013Z,87.95
2024-01-11T23:00:22.566Z,87.95
2024-01-11T23:02:24.910Z,88.05
2024-01-11T23:04:26.633Z,87.93
2024-01-11T23:06:28.659Z,88.05
2024-01-11T23:08:30.572Z,88.30
2024-01-11T23:10:32.356Z,88.39
2024-01-11T23:12:34.218Z,88.20
2024-01-11T23:14:35.970Z,88.15
2024-01-11T23:16:37.819Z,88.41
2024-01-11T23:18:40.025Z,88.21
2024-01-11T23:20:41.928Z,88.57
2024-01-11T23:22:43.734Z,88.55
2024-01-11T23:24:45.488Z,88.30
2024-01-11T23:26:47.213Z,88.27
2024-01-11T23:28:48.976Z,88.58
2024-01-11T23:30:50.876Z,88.75
2024-01-11T23:32:52.726Z,88.64
2024-01-11T23:34:54.637Z,88.46
2024-01-11T23:36:56.513Z,88.67
2024-01-11T23:38:58.370Z,88.54
2024-01-11T23:41:00.160Z,88.77
2024-01-11T23:43:02.705Z,88.51
2024-01-11T23:45:06.154Z,88.55
2024-01-11T23:47:09.076Z,88.66
2024-01-11T23:49:11.044Z,88.96
2024-01-11T23:51:12.912Z,88.72
2024-01-11T23:53:14.816Z,88.91
2024-01-11T23:55:16.541Z,88.92
2024-01-11T23:57:18.465Z,88.92
2024-01-11T23:59:20.644Z,88.60
